Terminal Aerodrome Forecast
Issued by NWS

Home | Current Version | Previous Version | Text Only | Print | Product List | Glossary On
Versions: 1 2 3 4 5 6 7 8 9 10 11 12 13
000
FTUS42 TJSJ 220520
TAFJSJ
TAF
TJSJ 220520Z 2206/2306 VRB03KT P6SM FEW030
     FM221400 07011KT P6SM SCT040
     FM222300 10005KT P6SM FEW030 SCT070=

USA.gov is the U.S. government's official web portal to all federal, state and local government web resources and services.